createdAt,value
2017-02-07T00:00:36.207Z,1013.67
2017-02-07T00:01:16.836Z,1013.66
2017-02-07T00:01:57.417Z,1013.67
2017-02-07T00:02:38.044Z,1013.6
2017-02-07T00:03:18.693Z,1013.65
2017-02-07T00:03:59.254Z,1013.64
2017-02-07T00:04:39.843Z,1013.71
2017-02-07T00:05:20.455Z,1013.68
2017-02-07T00:06:01.101Z,1013.64
2017-02-07T00:06:41.686Z,1013.61
2017-02-07T00:07:22.351Z,1013.65
2017-02-07T00:08:02.958Z,1013.65
2017-02-07T00:08:43.616Z,1013.63
2017-02-07T00:09:24.261Z,1013.63
2017-02-07T00:10:04.928Z,1013.65
2017-02-07T00:10:45.589Z,1013.62
2017-02-07T00:11:26.220Z,1013.6
2017-02-07T00:12:06.876Z,1013.61
2017-02-07T00:12:47.534Z,1013.64
2017-02-07T00:13:28.184Z,1013.62
2017-02-07T00:14:08.842Z,1013.64
2017-02-07T00:14:49.488Z,1013.65
2017-02-07T00:15:30.143Z,1013.64
2017-02-07T00:16:10.798Z,1013.68
2017-02-07T00:16:51.451Z,1013.65
2017-02-07T00:17:32.103Z,1013.66
2017-02-07T00:18:12.755Z,1013.67
2017-02-07T00:18:53.411Z,1013.69
2017-02-07T00:19:34.162Z,1013.66
2017-02-07T00:20:14.818Z,1013.65
2017-02-07T00:20:55.583Z,1013.61
2017-02-07T00:21:36.224Z,1013.63
2017-02-07T00:22:16.978Z,1013.62
2017-02-07T00:22:57.738Z,1013.63
2017-02-07T00:23:38.490Z,1013.6
2017-02-07T00:24:19.246Z,1013.62
2017-02-07T00:25:00.002Z,1013.66
2017-02-07T00:25:40.754Z,1013.6
2017-02-07T00:26:21.410Z,1013.66
2017-02-07T00:27:02.058Z,1013.66
2017-02-07T00:27:42.716Z,1013.66
2017-02-07T00:28:23.370Z,1013.64
2017-02-07T00:29:04.017Z,1013.62
2017-02-07T00:29:44.674Z,1013.63
2017-02-07T00:30:25.327Z,1013.6
2017-02-07T00:31:05.981Z,1013.56
2017-02-07T00:31:46.632Z,1013.51
2017-02-07T00:32:27.286Z,1013.58
2017-02-07T00:33:07.946Z,1013.55
2017-02-07T00:33:48.591Z,1013.55
2017-02-07T00:34:29.245Z,1013.54
2017-02-07T00:35:09.897Z,1013.57
2017-02-07T00:35:50.549Z,1013.55
2017-02-07T00:36:31.205Z,1013.59
2017-02-07T00:37:11.856Z,1013.54
2017-02-07T00:37:52.508Z,1013.58
2017-02-07T00:38:33.163Z,1013.54
2017-02-07T00:39:13.812Z,1013.58
2017-02-07T00:39:54.467Z,1013.57
2017-02-07T00:40:35.116Z,1013.58
2017-02-07T00:41:15.774Z,1013.56
2017-02-07T00:41:56.417Z,1013.6
2017-02-07T00:42:37.079Z,1013.57
2017-02-07T00:43:17.732Z,1013.55
2017-02-07T00:43:58.386Z,1013.56
2017-02-07T00:44:39.038Z,1013.56
2017-02-07T00:45:19.689Z,1013.53
2017-02-07T00:46:00.344Z,1013.58
2017-02-07T00:46:41.000Z,1013.6
2017-02-07T00:47:21.650Z,1013.6
2017-02-07T00:48:02.303Z,1013.61
2017-02-07T00:48:42.956Z,1013.66
2017-02-07T00:49:23.607Z,1013.63
2017-02-07T00:50:04.266Z,1013.64
2017-02-07T00:50:44.914Z,1013.61
2017-02-07T00:51:25.566Z,1013.63
2017-02-07T00:52:06.216Z,1013.57
2017-02-07T00:52:46.872Z,1013.61
2017-02-07T00:53:27.525Z,1013.61
2017-02-07T00:54:08.177Z,1013.61
2017-02-07T00:54:48.830Z,1013.65
2017-02-07T00:55:29.485Z,1013.61
2017-02-07T00:56:10.137Z,1013.66
2017-02-07T00:56:50.790Z,1013.63
2017-02-07T00:57:31.441Z,1013.63
2017-02-07T00:58:12.095Z,1013.6
2017-02-07T00:58:52.749Z,1013.59
2017-02-07T00:59:33.400Z,1013.66
2017-02-07T01:00:14.054Z,1013.61
2017-02-07T01:00:54.706Z,1013.59
2017-02-07T01:01:35.361Z,1013.61
2017-02-07T01:02:16.016Z,1013.57
2017-02-07T01:02:56.666Z,1013.54
2017-02-07T01:03:37.319Z,1013.53
2017-02-07T01:04:17.977Z,1013.52
2017-02-07T01:04:58.627Z,1013.52
2017-02-07T01:05:39.278Z,1013.51
2017-02-07T01:06:19.931Z,1013.55
2017-02-07T01:07:00.585Z,1013.53
2017-02-07T01:07:41.161Z,1013.54
2017-02-07T01:08:21.787Z,1013.53
2017-02-07T01:09:02.440Z,1013.53
2017-02-07T01:09:43.012Z,1013.5
2017-02-07T01:10:23.645Z,1013.52
2017-02-07T01:11:04.325Z,1013.51
2017-02-07T01:11:44.889Z,1013.54
2017-02-07T01:12:25.476Z,1013.54
2017-02-07T01:13:06.152Z,1013.52
2017-02-07T01:13:46.743Z,1013.51
2017-02-07T01:14:27.397Z,1013.52
2017-02-07T01:15:08.009Z,1013.5
2017-02-07T01:15:48.680Z,1013.51
2017-02-07T01:16:29.270Z,1013.47
2017-02-07T01:17:09.895Z,1013.5
2017-02-07T01:17:51.542Z,1013.51
2017-02-07T01:18:32.298Z,1013.48
2017-02-07T01:19:12.954Z,1013.51
2017-02-07T01:19:53.603Z,1013.48
2017-02-07T01:20:34.256Z,1013.47
2017-02-07T01:21:14.910Z,1013.46
2017-02-07T01:21:55.562Z,1013.41
2017-02-07T01:22:36.132Z,1013.41
2017-02-07T01:23:16.705Z,1013.44
2017-02-07T01:23:57.315Z,1013.42
2017-02-07T01:24:37.969Z,1013.43
2017-02-07T01:25:18.526Z,1013.38
2017-02-07T01:25:59.113Z,1013.37
2017-02-07T01:26:39.722Z,1013.4
2017-02-07T01:27:20.377Z,1013.36
2017-02-07T01:28:00.946Z,1013.37
2017-02-07T01:28:41.537Z,1013.36
2017-02-07T01:29:22.128Z,1013.43
2017-02-07T01:30:02.782Z,1013.42
2017-02-07T01:30:43.361Z,1013.38
2017-02-07T01:31:23.924Z,1013.38
2017-02-07T01:32:04.535Z,1013.38
2017-02-07T01:32:45.188Z,1013.34
2017-02-07T01:33:25.846Z,1013.36
2017-02-07T01:34:06.498Z,1013.35
2017-02-07T01:34:47.149Z,1013.35
2017-02-07T01:35:27.801Z,1013.36
2017-02-07T01:36:08.458Z,1013.33
2017-02-07T01:36:49.108Z,1013.33
2017-02-07T01:37:29.759Z,1013.33
2017-02-07T01:38:10.411Z,1013.33
2017-02-07T01:38:51.065Z,1013.35
2017-02-07T01:39:31.722Z,1013.31
2017-02-07T01:40:12.372Z,1013.29
2017-02-07T01:40:53.026Z,1013.35
2017-02-07T01:41:33.676Z,1013.32
2017-02-07T01:42:14.334Z,1013.32
2017-02-07T01:42:54.908Z,1013.33
2017-02-07T01:43:35.490Z,1013.36
2017-02-07T01:44:16.088Z,1013.37
2017-02-07T01:44:56.737Z,1013.33
2017-02-07T01:45:37.308Z,1013.29
2017-02-07T01:46:17.897Z,1013.31
2017-02-07T01:46:58.490Z,1013.3
2017-02-07T01:47:39.149Z,1013.28
2017-02-07T01:48:19.797Z,1013.26
2017-02-07T01:49:00.452Z,1013.28
2017-02-07T01:49:41.104Z,1013.24
2017-02-07T01:50:21.758Z,1013.21
2017-02-07T01:51:02.411Z,1013.26
2017-02-07T01:51:43.062Z,1013.24
2017-02-07T01:52:23.719Z,1013.22
2017-02-07T01:53:04.370Z,1013.23
2017-02-07T01:53:45.023Z,1013.22
2017-02-07T01:54:25.676Z,1013.22
2017-02-07T01:55:06.327Z,1013.19
2017-02-07T01:55:46.983Z,1013.22
2017-02-07T01:56:27.629Z,1013.2
2017-02-07T01:57:08.286Z,1013.22
2017-02-07T01:57:48.941Z,1013.2
2017-02-07T01:58:29.593Z,1013.21
2017-02-07T01:59:10.247Z,1013.19
2017-02-07T01:59:50.898Z,1013.22
2017-02-07T02:00:31.552Z,1013.21
2017-02-07T02:01:12.207Z,1013.21
2017-02-07T02:01:52.775Z,1013.23
2017-02-07T02:02:33.408Z,1013.21
2017-02-07T02:03:14.061Z,1013.22
2017-02-07T02:03:54.715Z,1013.24
2017-02-07T02:04:35.371Z,1013.24
2017-02-07T02:05:16.020Z,1013.24
2017-02-07T02:05:56.672Z,1013.24
2017-02-07T02:06:37.324Z,1013.23
2017-02-07T02:07:17.978Z,1013.25
2017-02-07T02:07:58.631Z,1013.26
2017-02-07T02:08:39.283Z,1013.25
2017-02-07T02:09:19.936Z,1013.19
2017-02-07T02:10:00.592Z,1013.17
2017-02-07T02:10:41.242Z,1013.16
2017-02-07T02:11:21.894Z,1013.16
2017-02-07T02:12:02.553Z,1013.14
2017-02-07T02:12:43.200Z,1013.09
2017-02-07T02:13:23.856Z,1013.08
2017-02-07T02:14:04.505Z,1013.15
2017-02-07T02:14:45.158Z,1013.12
2017-02-07T02:15:25.818Z,1013.11
2017-02-07T02:16:06.465Z,1013.12
2017-02-07T02:16:47.117Z,1013.17
2017-02-07T02:17:27.772Z,1013.14
2017-02-07T02:18:08.425Z,1013.12
2017-02-07T02:18:49.181Z,1013.09
2017-02-07T02:19:29.840Z,1013.07
2017-02-07T02:20:10.484Z,1013.06
2017-02-07T02:20:51.138Z,1013.03
2017-02-07T02:21:31.791Z,1012.99
2017-02-07T02:22:12.444Z,1012.97
2017-02-07T02:22:53.019Z,1012.94
2017-02-07T02:23:33.701Z,1012.97
2017-02-07T02:24:14.300Z,1012.98
2017-02-07T02:24:54.958Z,1012.94
2017-02-07T02:25:35.528Z,1012.99
2017-02-07T02:26:16.106Z,1012.99
2017-02-07T02:26:56.707Z,1012.94
2017-02-07T02:27:37.363Z,1012.98
2017-02-07T02:28:18.017Z,1012.97
2017-02-07T02:28:58.671Z,1012.99
2017-02-07T02:29:39.325Z,1012.99
2017-02-07T02:30:19.973Z,1012.95
2017-02-07T02:31:00.623Z,1012.92
2017-02-07T02:31:41.276Z,1012.93
2017-02-07T02:32:21.935Z,1012.94
2017-02-07T02:33:02.503Z,1012.93
2017-02-07T02:33:43.096Z,1012.91
2017-02-07T02:34:24.705Z,1012.86
2017-02-07T02:35:05.360Z,1012.82
2017-02-07T02:35:45.936Z,1012.85
2017-02-07T02:36:26.514Z,1012.83
2017-02-07T02:37:07.119Z,1012.83
2017-02-07T02:37:47.774Z,1012.85
2017-02-07T02:38:28.425Z,1012.81
2017-02-07T02:39:09.080Z,1012.82
2017-02-07T02:39:49.725Z,1012.82
2017-02-07T02:40:30.385Z,1012.81
2017-02-07T02:41:11.033Z,1012.79
2017-02-07T02:41:51.690Z,1012.78
2017-02-07T02:42:32.344Z,1012.75
2017-02-07T02:43:13.001Z,1012.76
2017-02-07T02:43:53.654Z,1012.76
2017-02-07T02:44:34.295Z,1012.78
2017-02-07T02:45:14.960Z,1012.77
2017-02-07T02:45:55.600Z,1012.74
2017-02-07T02:46:36.264Z,1012.73
2017-02-07T02:47:16.913Z,1012.77
2017-02-07T02:47:57.563Z,1012.71
2017-02-07T02:48:38.218Z,1012.75
2017-02-07T02:49:18.868Z,1012.69
2017-02-07T02:49:59.527Z,1012.72
2017-02-07T02:50:40.169Z,1012.69
2017-02-07T02:51:20.835Z,1012.66
2017-02-07T02:52:01.482Z,1012.65
2017-02-07T02:52:42.139Z,1012.64
2017-02-07T02:53:22.693Z,1012.7
2017-02-07T02:54:03.324Z,1012.7
2017-02-07T02:54:43.889Z,1012.7
2017-02-07T02:55:24.541Z,1012.71
2017-02-07T02:56:05.115Z,1012.67
2017-02-07T02:56:45.696Z,1012.76
2017-02-07T02:57:26.289Z,1012.73
2017-02-07T02:58:06.955Z,1012.69
2017-02-07T02:58:47.515Z,1012.71
2017-02-07T02:59:28.123Z,1012.73
2017-02-07T03:00:08.696Z,1012.68
2017-02-07T03:00:49.360Z,1012.73
2017-02-07T03:01:29.920Z,1012.7
2017-02-07T03:02:10.527Z,1012.74
2017-02-07T03:02:51.108Z,1012.73
2017-02-07T03:03:31.749Z,1012.71
2017-02-07T03:04:12.419Z,1012.7
2017-02-07T03:04:53.072Z,1012.69
2017-02-07T03:05:33.726Z,1012.7
2017-02-07T03:06:14.376Z,1012.72
2017-02-07T03:06:55.030Z,1012.68
2017-02-07T03:07:35.686Z,1012.71
2017-02-07T03:08:16.339Z,1012.68
2017-02-07T03:08:56.997Z,1012.74
2017-02-07T03:09:37.642Z,1012.75
2017-02-07T03:10:18.293Z,1012.76
2017-02-07T03:10:58.953Z,1012.76
2017-02-07T03:11:39.601Z,1012.73
2017-02-07T03:12:20.255Z,1012.71
2017-02-07T03:13:00.908Z,1012.73
2017-02-07T03:13:41.470Z,1012.76
2017-02-07T03:14:22.101Z,1012.73
2017-02-07T03:15:02.671Z,1012.77
2017-02-07T03:15:43.313Z,1012.76
2017-02-07T03:16:23.882Z,1012.76
2017-02-07T03:17:04.516Z,1012.78
2017-02-07T03:17:45.084Z,1012.76
2017-02-07T03:18:25.722Z,1012.81
2017-02-07T03:19:06.287Z,1012.81
2017-02-07T03:19:46.885Z,1012.84
2017-02-07T03:20:27.461Z,1012.81
2017-02-07T03:21:08.130Z,1012.81
2017-02-07T03:21:48.684Z,1012.81
2017-02-07T03:22:29.290Z,1012.76
2017-02-07T03:23:09.881Z,1012.72
2017-02-07T03:23:50.534Z,1012.69
2017-02-07T03:24:31.188Z,1012.7
2017-02-07T03:25:11.839Z,1012.64
2017-02-07T03:25:52.494Z,1012.63
2017-02-07T03:26:33.150Z,1012.62
2017-02-07T03:27:13.798Z,1012.6
2017-02-07T03:27:54.364Z,1012.56
2017-02-07T03:28:34.952Z,1012.57
2017-02-07T03:29:15.552Z,1012.65
2017-02-07T03:29:56.205Z,1012.58
2017-02-07T03:30:36.762Z,1012.64
2017-02-07T03:31:17.370Z,1012.66
2017-02-07T03:31:57.958Z,1012.7
2017-02-07T03:32:38.613Z,1012.7
2017-02-07T03:33:19.185Z,1012.72
2017-02-07T03:33:59.754Z,1012.71
2017-02-07T03:34:40.364Z,1012.72
2017-02-07T03:35:21.022Z,1012.71
2017-02-07T03:36:01.598Z,1012.68
2017-02-07T03:36:42.281Z,1012.66
2017-02-07T03:37:22.874Z,1012.65
2017-02-07T03:38:03.527Z,1012.61
2017-02-07T03:38:44.185Z,1012.6
2017-02-07T03:39:24.831Z,1012.59
2017-02-07T03:40:05.488Z,1012.59
2017-02-07T03:40:46.139Z,1012.57
2017-02-07T03:41:26.795Z,1012.61
2017-02-07T03:42:07.445Z,1012.59
2017-02-07T03:42:48.104Z,1012.57
2017-02-07T03:43:28.651Z,1012.58
2017-02-07T03:44:09.265Z,1012.58
2017-02-07T03:44:49.851Z,1012.6
2017-02-07T03:45:30.510Z,1012.59
2017-02-07T03:46:11.062Z,1012.58
2017-02-07T03:46:51.677Z,1012.59
2017-02-07T03:47:32.364Z,1012.6
2017-02-07T03:48:13.016Z,1012.62
2017-02-07T03:48:53.669Z,1012.65
2017-02-07T03:49:34.322Z,1012.62
2017-02-07T03:50:14.975Z,1012.64
2017-02-07T03:50:55.629Z,1012.6
2017-02-07T03:51:36.280Z,1012.61
2017-02-07T03:52:16.933Z,1012.61
2017-02-07T03:52:57.587Z,1012.61
2017-02-07T03:53:38.139Z,1012.65
2017-02-07T03:54:18.746Z,1012.6
2017-02-07T03:54:59.324Z,1012.55
2017-02-07T03:55:39.992Z,1012.59
2017-02-07T03:56:20.554Z,1012.59
2017-02-07T03:57:01.151Z,1012.58
2017-02-07T03:57:41.745Z,1012.58
2017-02-07T03:58:22.398Z,1012.53
2017-02-07T03:59:03.051Z,1012.57
2017-02-07T03:59:43.706Z,1012.59
2017-02-07T04:00:24.358Z,1012.51
2017-02-07T04:01:05.011Z,1012.5
2017-02-07T04:01:45.665Z,1012.5
2017-02-07T04:02:26.316Z,1012.47
2017-02-07T04:03:06.969Z,1012.45
2017-02-07T04:03:47.625Z,1012.47
2017-02-07T04:04:28.274Z,1012.44
2017-02-07T04:05:08.927Z,1012.43
2017-02-07T04:05:49.581Z,1012.42
2017-02-07T04:06:30.235Z,1012.41
2017-02-07T04:07:10.886Z,1012.38
2017-02-07T04:07:51.541Z,1012.34
2017-02-07T04:08:32.108Z,1012.35
2017-02-07T04:09:12.700Z,1012.36
2017-02-07T04:09:53.289Z,1012.32
2017-02-07T04:10:33.978Z,1012.37
2017-02-07T04:11:14.508Z,1012.34
2017-02-07T04:11:55.125Z,1012.39
2017-02-07T04:12:35.801Z,1012.4
2017-02-07T04:13:16.457Z,1012.41
2017-02-07T04:13:57.021Z,1012.41
2017-02-07T04:14:37.620Z,1012.36
2017-02-07T04:15:18.311Z,1012.34
2017-02-07T04:15:58.975Z,1012.4
2017-02-07T04:16:39.534Z,1012.4
2017-02-07T04:17:20.124Z,1012.37
2017-02-07T04:18:00.732Z,1012.36
2017-02-07T04:18:41.374Z,1012.35
2017-02-07T04:19:21.937Z,1012.37
2017-02-07T04:20:02.537Z,1012.32
2017-02-07T04:20:43.125Z,1012.3
2017-02-07T04:21:24.907Z,1012.32
2017-02-07T04:22:05.465Z,1012.31
2017-02-07T04:22:46.065Z,1012.35
2017-02-07T04:23:26.654Z,1012.29
2017-02-07T04:24:07.231Z,1012.31
2017-02-07T04:24:47.858Z,1012.34
2017-02-07T04:25:28.516Z,1012.34
2017-02-07T04:26:09.118Z,1012.33
2017-02-07T04:26:49.716Z,1012.29
2017-02-07T04:27:30.377Z,1012.36
2017-02-07T04:28:10.940Z,1012.37
2017-02-07T04:28:51.570Z,1012.35
2017-02-07T04:29:33.154Z,1012.36
2017-02-07T04:30:13.718Z,1012.32
2017-02-07T04:30:54.346Z,1012.33
2017-02-07T04:31:35.010Z,1012.31
2017-02-07T04:32:15.563Z,1012.35
2017-02-07T04:32:56.217Z,1012.32
2017-02-07T04:33:36.867Z,1012.33
2017-02-07T04:34:17.433Z,1012.34
2017-02-07T04:34:58.029Z,1012.29
2017-02-07T04:35:38.624Z,1012.31
2017-02-07T04:36:19.273Z,1012.27
2017-02-07T04:36:59.845Z,1012.26
2017-02-07T04:37:40.441Z,1012.27
2017-02-07T04:38:21.017Z,1012.23
2017-02-07T04:39:01.674Z,1012.25
2017-02-07T04:39:42.332Z,1012.25
2017-02-07T04:40:22.986Z,1012.22
2017-02-07T04:41:03.639Z,1012.24
2017-02-07T04:41:44.297Z,1012.22
2017-02-07T04:42:24.946Z,1012.15
2017-02-07T04:43:05.599Z,1012.15
2017-02-07T04:43:46.253Z,1012.15
2017-02-07T04:44:26.814Z,1012.13
2017-02-07T04:45:07.417Z,1012.13
2017-02-07T04:45:48.108Z,1012.12
2017-02-07T04:46:28.762Z,1012.11
2017-02-07T04:47:09.332Z,1012.12
2017-02-07T04:47:50.016Z,1012.15
2017-02-07T04:48:30.607Z,1012.15
2017-02-07T04:49:11.265Z,1012.1
2017-02-07T04:49:51.835Z,1012.15
2017-02-07T04:50:32.436Z,1012.19
2017-02-07T04:51:13.020Z,1012.2
2017-02-07T04:51:53.678Z,1012.21
2017-02-07T04:52:34.248Z,1012.22
2017-02-07T04:53:14.830Z,1012.2
2017-02-07T04:53:55.431Z,1012.18
2017-02-07T04:54:36.084Z,1012.24
2017-02-07T04:55:16.645Z,1012.22
2017-02-07T04:55:57.237Z,1012.21
2017-02-07T04:56:37.837Z,1012.23
2017-02-07T04:57:18.489Z,1012.2
2017-02-07T04:57:59.051Z,1012.18
2017-02-07T04:58:40.722Z,1012.12
2017-02-07T04:59:21.371Z,1012.18
2017-02-07T05:00:02.027Z,1012.11
2017-02-07T05:00:42.678Z,1012.11
2017-02-07T05:01:23.326Z,1012.11
2017-02-07T05:02:03.981Z,1012.08
2017-02-07T05:02:44.634Z,1012.07
2017-02-07T05:03:25.200Z,1012.08
2017-02-07T05:04:05.836Z,1012.09
2017-02-07T05:04:46.490Z,1012.09
2017-02-07T05:05:27.055Z,1012.05
2017-02-07T05:06:07.691Z,1012.08
2017-02-07T05:06:48.345Z,1012.1
2017-02-07T05:07:28.908Z,1012.12
2017-02-07T05:08:09.545Z,1012.13
2017-02-07T05:08:50.208Z,1012.09
2017-02-07T05:09:30.765Z,1012.13
2017-02-07T05:10:11.367Z,1012.12
2017-02-07T05:10:51.944Z,1012.13
2017-02-07T05:11:32.608Z,1012.13
2017-02-07T05:12:13.176Z,1012.14
2017-02-07T05:12:53.775Z,1012.12
2017-02-07T05:13:34.359Z,1012.14
2017-02-07T05:14:15.016Z,1012.13
2017-02-07T05:14:55.591Z,1012.14
2017-02-07T05:15:36.170Z,1012.11
2017-02-07T05:16:16.770Z,1012.12
2017-02-07T05:16:57.428Z,1012.09
2017-02-07T05:17:37.979Z,1012.09
2017-02-07T05:18:18.630Z,1012.11
2017-02-07T05:19:00.265Z,1012.09
2017-02-07T05:19:40.839Z,1012.13
2017-02-07T05:20:21.509Z,1012.17
2017-02-07T05:21:04.909Z,1012.12
2017-02-07T05:21:45.557Z,1012.14
2017-02-07T05:22:26.210Z,1012.19
2017-02-07T05:23:06.767Z,1012.15
2017-02-07T05:23:47.377Z,1012.15
2017-02-07T05:24:28.010Z,1012.15
2017-02-07T05:25:08.684Z,1012.13
2017-02-07T05:25:49.325Z,1012.16
2017-02-07T05:26:29.991Z,1012.18
2017-02-07T05:27:10.639Z,1012.11
2017-02-07T05:27:51.290Z,1012.17
2017-02-07T05:28:31.871Z,1012.14
2017-02-07T05:29:12.536Z,1012.11
2017-02-07T05:29:53.089Z,1012.13
2017-02-07T05:30:33.682Z,1012.12
2017-02-07T05:31:14.287Z,1012.13
2017-02-07T05:31:54.946Z,1012.13
2017-02-07T05:32:35.498Z,1012.12
2017-02-07T05:33:16.087Z,1012.13
2017-02-07T05:33:56.689Z,1012.09
2017-02-07T05:34:37.347Z,1012.13
2017-02-07T05:35:17.904Z,1012.06
2017-02-07T05:35:58.494Z,1012.09
2017-02-07T05:36:39.092Z,1012.06
2017-02-07T05:37:19.755Z,1012.07
2017-02-07T05:38:00.310Z,1012.09
2017-02-07T05:38:40.960Z,1012.1
2017-02-07T05:39:21.609Z,1012.11
2017-02-07T05:40:02.171Z,1012.06
2017-02-07T05:40:42.815Z,1012.05
2017-02-07T05:41:23.467Z,1012.07
2017-02-07T05:42:04.041Z,1012.05
2017-02-07T05:42:44.671Z,1012.06
2017-02-07T05:43:25.324Z,1012.06
2017-02-07T05:44:05.894Z,1012.06
2017-02-07T05:44:46.485Z,1012.05
2017-02-07T05:45:27.059Z,1012.08
2017-02-07T05:46:07.722Z,1012.1
2017-02-07T05:46:48.298Z,1012.09
2017-02-07T05:47:28.881Z,1012.12
2017-02-07T05:48:09.481Z,1012.12
2017-02-07T05:48:50.133Z,1012.14
2017-02-07T05:49:30.728Z,1012.12
2017-02-07T05:50:11.388Z,1012.16
2017-02-07T05:50:51.996Z,1012.16
2017-02-07T05:51:32.647Z,1012.14
2017-02-07T05:52:13.217Z,1012.15
2017-02-07T05:52:53.806Z,1012.14
2017-02-07T05:53:34.400Z,1012.12
2017-02-07T05:54:15.052Z,1012.13
2017-02-07T05:54:55.701Z,1012.17
2017-02-07T05:55:36.358Z,1012.16
2017-02-07T05:56:17.011Z,1012.14
2017-02-07T05:56:57.660Z,1012.15
2017-02-07T05:57:38.316Z,1012.16
2017-02-07T05:58:18.971Z,1012.13
2017-02-07T05:58:59.625Z,1012.15
2017-02-07T05:59:40.274Z,1012.19
2017-02-07T06:00:20.927Z,1012.16
2017-02-07T06:01:01.582Z,1012.15
2017-02-07T06:01:42.230Z,1012.12
2017-02-07T06:02:22.885Z,1012.19
2017-02-07T06:03:03.542Z,1012.2
2017-02-07T06:03:44.193Z,1012.11
2017-02-07T06:04:24.847Z,1012.13
2017-02-07T06:05:05.497Z,1012.14
2017-02-07T06:05:46.147Z,1012.16
2017-02-07T06:06:26.803Z,1012.17
2017-02-07T06:07:07.456Z,1012.15
2017-02-07T06:07:48.110Z,1012.14
2017-02-07T06:08:28.663Z,1012.12
2017-02-07T06:09:09.376Z,1012.15
2017-02-07T06:09:49.978Z,1012.16
2017-02-07T06:10:30.626Z,1012.14
2017-02-07T06:11:11.196Z,1012.13
2017-02-07T06:11:51.768Z,1012.12
2017-02-07T06:12:32.386Z,1012.13
2017-02-07T06:13:13.026Z,1012.1
2017-02-07T06:13:53.587Z,1012.1
2017-02-07T06:14:34.188Z,1012.06
2017-02-07T06:15:14.881Z,1012.06
2017-02-07T06:15:55.535Z,1012.09
2017-02-07T06:16:36.104Z,1012.08
2017-02-07T06:17:16.703Z,1012.1
2017-02-07T06:17:57.281Z,1012.11
2017-02-07T06:18:37.945Z,1012.05
2017-02-07T06:19:18.518Z,1012.08
2017-02-07T06:19:59.107Z,1012.1
2017-02-07T06:20:39.702Z,1012.08
2017-02-07T06:21:20.347Z,1012.08
2017-02-07T06:22:00.928Z,1012.09
2017-02-07T06:22:41.622Z,1012.05
2017-02-07T06:23:22.203Z,1012.08
2017-02-07T06:24:02.860Z,1012.04
2017-02-07T06:24:43.509Z,1012.1
2017-02-07T06:25:24.162Z,1012.04
2017-02-07T06:26:04.819Z,1012.01
2017-02-07T06:26:45.476Z,1012
2017-02-07T06:27:26.121Z,1012.04
2017-02-07T06:28:06.774Z,1011.99
2017-02-07T06:28:47.430Z,1012.05
2017-02-07T06:29:28.081Z,1012.04
2017-02-07T06:30:08.739Z,1012.04
2017-02-07T06:30:49.389Z,1012.03
2017-02-07T06:31:30.041Z,1012.05
2017-02-07T06:32:10.695Z,1012.02
2017-02-07T06:32:51.353Z,1012.02
2017-02-07T06:33:32.001Z,1012.01
2017-02-07T06:34:12.653Z,1011.98
2017-02-07T06:34:53.305Z,1011.97
2017-02-07T06:35:33.960Z,1011.97
2017-02-07T06:36:14.616Z,1012
2017-02-07T06:36:55.268Z,1012
2017-02-07T06:37:35.923Z,1012.01
2017-02-07T06:38:16.568Z,1012.02
2017-02-07T06:38:57.143Z,1012.03
2017-02-07T06:39:37.736Z,1012.02
2017-02-07T06:40:18.325Z,1012
2017-02-07T06:40:58.976Z,1011.99
2017-02-07T06:41:39.540Z,1012.04
2017-02-07T06:42:20.142Z,1012
2017-02-07T06:43:00.727Z,1011.99
2017-02-07T06:43:41.399Z,1011.98
2017-02-07T06:44:21.996Z,1011.96
2017-02-07T06:45:02.664Z,1011.94
2017-02-07T06:45:43.240Z,1011.96
2017-02-07T06:46:23.898Z,1012.01
2017-02-07T06:47:04.450Z,1011.97
2017-02-07T06:47:45.059Z,1011.97
2017-02-07T06:48:25.757Z,1011.95
2017-02-07T06:49:06.392Z,1011.97
2017-02-07T06:49:46.959Z,1011.94
2017-02-07T06:50:27.594Z,1011.97
2017-02-07T06:51:08.256Z,1011.93
2017-02-07T06:51:48.839Z,1011.93
2017-02-07T06:52:29.448Z,1011.92
2017-02-07T06:53:10.100Z,1011.94
2017-02-07T06:53:50.760Z,1011.96
2017-02-07T06:54:31.414Z,1011.97
2017-02-07T06:55:12.068Z,1011.98
2017-02-07T06:55:52.763Z,1011.99
2017-02-07T06:56:33.372Z,1011.98
2017-02-07T06:57:14.019Z,1012
2017-02-07T06:57:54.672Z,1012.04
2017-02-07T06:58:35.326Z,1012.04
2017-02-07T06:59:15.983Z,1012.03
2017-02-07T06:59:56.659Z,1012.03
2017-02-07T07:00:37.290Z,1012.02
2017-02-07T07:01:17.954Z,1012
2017-02-07T07:01:58.595Z,1012.03
2017-02-07T07:02:39.247Z,1012.01
2017-02-07T07:03:19.906Z,1012
2017-02-07T07:04:00.553Z,1011.95
2017-02-07T07:04:41.207Z,1012.01
2017-02-07T07:05:21.862Z,1011.95
2017-02-07T07:06:02.512Z,1011.99
2017-02-07T07:06:43.165Z,1011.97
2017-02-07T07:07:23.819Z,1012
2017-02-07T07:08:04.471Z,1011.98
2017-02-07T07:08:45.044Z,1011.94
2017-02-07T07:09:25.707Z,1011.95
2017-02-07T07:10:06.327Z,1011.93
2017-02-07T07:10:46.980Z,1012
2017-02-07T07:11:27.669Z,1011.97
2017-02-07T07:12:08.233Z,1011.97
2017-02-07T07:12:48.830Z,1012.01
2017-02-07T07:13:29.492Z,1012.02
2017-02-07T07:14:10.151Z,1012
2017-02-07T07:14:50.696Z,1012.03
2017-02-07T07:15:31.358Z,1011.99
2017-02-07T07:16:12.002Z,1012.05
2017-02-07T07:16:52.658Z,1012.03
2017-02-07T07:17:33.305Z,1012.04
2017-02-07T07:18:13.957Z,1012.05
2017-02-07T07:18:54.532Z,1012.04
2017-02-07T07:19:35.113Z,1012.04
2017-02-07T07:20:15.700Z,1012.03
2017-02-07T07:20:56.365Z,1012.06
2017-02-07T07:21:36.928Z,1012.02
2017-02-07T07:22:17.525Z,1012.03
2017-02-07T07:22:58.111Z,1012.06
2017-02-07T07:23:38.774Z,1012.06
2017-02-07T07:24:19.434Z,1012.07
2017-02-07T07:25:00.076Z,1012.07
2017-02-07T07:25:40.737Z,1012.04
2017-02-07T07:26:21.381Z,1012.05
2017-02-07T07:27:02.036Z,1012.04
2017-02-07T07:27:42.707Z,1012.05
2017-02-07T07:28:23.340Z,1012.02
2017-02-07T07:29:04.002Z,1012.05
2017-02-07T07:29:44.656Z,1012.03
2017-02-07T07:30:25.299Z,1012.03
2017-02-07T07:31:05.951Z,1012.03
2017-02-07T07:31:46.618Z,1011.96
2017-02-07T07:32:27.264Z,1011.98
2017-02-07T07:33:07.921Z,1011.99
2017-02-07T07:33:48.488Z,1012.01
2017-02-07T07:34:29.115Z,1012
2017-02-07T07:35:09.770Z,1011.96
2017-02-07T07:35:50.418Z,1012.02
2017-02-07T07:36:31.074Z,1012.02
2017-02-07T07:37:11.741Z,1011.99
2017-02-07T07:37:52.488Z,1012.04
2017-02-07T07:38:33.142Z,1011.99
2017-02-07T07:39:13.797Z,1012.03
2017-02-07T07:39:54.448Z,1012.03
2017-02-07T07:40:35.092Z,1012.02
2017-02-07T07:41:15.752Z,1012.02
2017-02-07T07:41:56.410Z,1012.04
2017-02-07T07:42:37.060Z,1012.06
2017-02-07T07:43:17.707Z,1012.03
2017-02-07T07:43:58.365Z,1012.05
2017-02-07T07:44:39.008Z,1012.07
2017-02-07T07:45:19.675Z,1012.03
2017-02-07T07:46:00.241Z,1012.02
2017-02-07T07:46:40.868Z,1012.01
2017-02-07T07:47:21.477Z,1012.02
2017-02-07T07:48:02.130Z,1012.03
2017-02-07T07:48:42.784Z,1012.02
2017-02-07T07:49:23.484Z,1012.01
2017-02-07T07:50:04.043Z,1012.01
2017-02-07T07:50:44.688Z,1012.01
2017-02-07T07:51:25.340Z,1012
2017-02-07T07:52:05.904Z,1011.96
2017-02-07T07:52:46.534Z,1011.97
2017-02-07T07:53:27.193Z,1011.97
2017-02-07T07:54:07.849Z,1012.04
2017-02-07T07:54:48.503Z,1012.02
2017-02-07T07:55:29.156Z,1012.01
2017-02-07T07:56:09.801Z,1012.02
2017-02-07T07:56:50.456Z,1012.02
2017-02-07T07:57:31.117Z,1012.04
2017-02-07T07:58:11.767Z,1011.99
2017-02-07T07:58:52.420Z,1011.98
2017-02-07T07:59:33.057Z,1012.01
2017-02-07T08:00:14.737Z,1012.02
2017-02-07T08:00:56.414Z,1012.02
2017-02-07T08:01:37.065Z,1011.99
2017-02-07T08:02:18.641Z,1011.99
2017-02-07T08:02:59.294Z,1012
2017-02-07T08:03:39.877Z,1012.01
2017-02-07T08:04:20.453Z,1012.02
2017-02-07T08:05:01.045Z,1012
2017-02-07T08:05:42.722Z,1011.98
2017-02-07T08:06:23.282Z,1011.97
2017-02-07T08:07:03.886Z,1011.99
2017-02-07T08:07:50.005Z,1011.99
2017-02-07T08:08:30.664Z,1011.96
2017-02-07T08:09:11.313Z,1011.98
2017-02-07T08:09:52.891Z,1012.03
2017-02-07T08:10:38.253Z,1012
2017-02-07T08:11:18.907Z,1011.97
2017-02-07T08:12:01.500Z,1011.94
2017-02-07T08:12:42.153Z,1011.9
2017-02-07T08:13:23.835Z,1011.94
2017-02-07T08:14:04.485Z,1011.92